sensor_id;sensor_type;location;lat;lon;timestamp;temperature;humidity
1379;DHT22;683;48.738;9.226;2023-05-20T00:01:38;11.70;95.90
1379;DHT22;683;48.738;9.226;2023-05-20T00:04:06;11.70;96.00
1379;DHT22;683;48.738;9.226;2023-05-20T00:06:33;11.70;96.10
1379;DHT22;683;48.738;9.226;2023-05-20T00:09:01;11.70;96.20
1379;DHT22;683;48.738;9.226;2023-05-20T00:11:30;11.70;96.30
1379;DHT22;683;48.738;9.226;2023-05-20T00:13:57;11.70;96.30
1379;DHT22;683;48.738;9.226;2023-05-20T00:16:25;11.70;96.50
1379;DHT22;683;48.738;9.226;2023-05-20T00:18:53;11.70;96.60
1379;DHT22;683;48.738;9.226;2023-05-20T00:21:21;11.80;96.80
1379;DHT22;683;48.738;9.226;2023-05-20T00:23:49;11.80;96.90
1379;DHT22;683;48.738;9.226;2023-05-20T00:26:16;11.80;97.00
1379;DHT22;683;48.738;9.226;2023-05-20T00:28:52;11.80;97.00
1379;DHT22;683;48.738;9.226;2023-05-20T00:31:19;11.80;97.20
1379;DHT22;683;48.738;9.226;2023-05-20T00:33:47;11.80;97.30
1379;DHT22;683;48.738;9.226;2023-05-20T00:36:14;11.80;97.30
1379;DHT22;683;48.738;9.226;2023-05-20T00:38:42;11.80;97.40
1379;DHT22;683;48.738;9.226;2023-05-20T00:41:09;11.80;97.50
1379;DHT22;683;48.738;9.226;2023-05-20T00:43:37;11.80;97.70
1379;DHT22;683;48.738;9.226;2023-05-20T00:46:06;11.80;97.70
1379;DHT22;683;48.738;9.226;2023-05-20T00:48:39;11.80;97.80
1379;DHT22;683;48.738;9.226;2023-05-20T00:51:07;11.80;98.00
1379;DHT22;683;48.738;9.226;2023-05-20T00:53:35;11.80;98.10
1379;DHT22;683;48.738;9.226;2023-05-20T00:56:03;11.80;98.20
1379;DHT22;683;48.738;9.226;2023-05-20T00:58:31;11.80;98.40
1379;DHT22;683;48.738;9.226;2023-05-20T01:00:58;11.80;98.50
1379;DHT22;683;48.738;9.226;2023-05-20T01:03:28;11.80;98.70
1379;DHT22;683;48.738;9.226;2023-05-20T01:05:56;11.80;98.80
1379;DHT22;683;48.738;9.226;2023-05-20T01:08:24;11.80;98.90
1379;DHT22;683;48.738;9.226;2023-05-20T01:10:57;11.80;99.00
1379;DHT22;683;48.738;9.226;2023-05-20T01:13:29;11.90;99.30
1379;DHT22;683;48.738;9.226;2023-05-20T01:16:00;11.90;99.70
1379;DHT22;683;48.738;9.226;2023-05-20T01:18:31;11.90;99.60
1379;DHT22;683;48.738;9.226;2023-05-20T01:21:01;11.90;99.60
1379;DHT22;683;48.738;9.226;2023-05-20T01:23:37;11.90;99.70
1379;DHT22;683;48.738;9.226;2023-05-20T01:26:08;11.90;99.90
1379;DHT22;683;48.738;9.226;2023-05-20T01:28:38;11.90;99.90
1379;DHT22;683;48.738;9.226;2023-05-20T01:31:13;11.90;99.90
1379;DHT22;683;48.738;9.226;2023-05-20T01:33:42;12.00;99.90
1379;DHT22;683;48.738;9.226;2023-05-20T01:36:10;11.90;99.90
1379;DHT22;683;48.738;9.226;2023-05-20T01:38:39;11.90;99.90
1379;DHT22;683;48.738;9.226;2023-05-20T01:41:08;11.90;99.90
1379;DHT22;683;48.738;9.226;2023-05-20T01:43:37;11.90;99.90
1379;DHT22;683;48.738;9.226;2023-05-20T01:46:05;11.90;99.90
1379;DHT22;683;48.738;9.226;2023-05-20T01:48:32;11.80;99.90
1379;DHT22;683;48.738;9.226;2023-05-20T01:51:00;11.80;99.90
1379;DHT22;683;48.738;9.226;2023-05-20T01:53:28;11.80;99.90
1379;DHT22;683;48.738;9.226;2023-05-20T01:55:57;11.80;99.90
1379;DHT22;683;48.738;9.226;2023-05-20T01:58:25;11.80;99.90
1379;DHT22;683;48.738;9.226;2023-05-20T02:00:53;11.80;99.90
1379;DHT22;683;48.738;9.226;2023-05-20T02:03:20;11.70;99.90
1379;DHT22;683;48.738;9.226;2023-05-20T02:05:48;11.70;99.90
1379;DHT22;683;48.738;9.226;2023-05-20T02:08:15;11.70;99.90
1379;DHT22;683;48.738;9.226;2023-05-20T02:10:43;11.60;99.90
1379;DHT22;683;48.738;9.226;2023-05-20T02:13:13;11.60;99.90
1379;DHT22;683;48.738;9.226;2023-05-20T02:15:40;11.50;99.90
1379;DHT22;683;48.738;9.226;2023-05-20T02:18:08;11.50;99.90
1379;DHT22;683;48.738;9.226;2023-05-20T02:20:37;11.40;99.90
1379;DHT22;683;48.738;9.226;2023-05-20T02:23:04;11.30;99.90
1379;DHT22;683;48.738;9.226;2023-05-20T02:25:33;11.20;99.90
1379;DHT22;683;48.738;9.226;2023-05-20T02:28:01;11.20;99.90
1379;DHT22;683;48.738;9.226;2023-05-20T02:30:32;11.10;99.90
1379;DHT22;683;48.738;9.226;2023-05-20T02:32:59;11.10;99.90
1379;DHT22;683;48.738;9.226;2023-05-20T02:35:26;11.00;99.90
1379;DHT22;683;48.738;9.226;2023-05-20T02:37:54;11.00;99.90
1379;DHT22;683;48.738;9.226;2023-05-20T02:40:21;10.90;99.90
1379;DHT22;683;48.738;9.226;2023-05-20T02:42:49;10.90;99.90
1379;DHT22;683;48.738;9.226;2023-05-20T02:45:16;10.80;99.90
1379;DHT22;683;48.738;9.226;2023-05-20T02:47:46;10.80;99.90
1379;DHT22;683;48.738;9.226;2023-05-20T02:50:13;10.80;99.90
1379;DHT22;683;48.738;9.226;2023-05-20T02:52:41;10.80;99.90
1379;DHT22;683;48.738;9.226;2023-05-20T02:55:08;10.80;99.90
1379;DHT22;683;48.738;9.226;2023-05-20T02:57:36;10.80;99.90
1379;DHT22;683;48.738;9.226;2023-05-20T03:00:07;10.80;99.90
1379;DHT22;683;48.738;9.226;2023-05-20T03:02:36;10.80;99.90
1379;DHT22;683;48.738;9.226;2023-05-20T03:05:05;10.80;99.90
1379;DHT22;683;48.738;9.226;2023-05-20T03:07:36;10.70;99.90
1379;DHT22;683;48.738;9.226;2023-05-20T03:10:06;10.80;99.90
1379;DHT22;683;48.738;9.226;2023-05-20T03:12:34;10.70;99.90
1379;DHT22;683;48.738;9.226;2023-05-20T03:15:01;10.80;99.90
1379;DHT22;683;48.738;9.226;2023-05-20T03:17:29;10.80;99.90
1379;DHT22;683;48.738;9.226;2023-05-20T03:19:56;10.70;99.90
1379;DHT22;683;48.738;9.226;2023-05-20T03:22:25;10.70;99.90
1379;DHT22;683;48.738;9.226;2023-05-20T03:24:53;10.70;99.90
1379;DHT22;683;48.738;9.226;2023-05-20T03:27:20;10.70;99.90
1379;DHT22;683;48.738;9.226;2023-05-20T03:29:48;10.70;99.90
1379;DHT22;683;48.738;9.226;2023-05-20T03:32:16;10.60;99.90
1379;DHT22;683;48.738;9.226;2023-05-20T03:34:43;10.50;99.90
1379;DHT22;683;48.738;9.226;2023-05-20T03:37:11;10.50;99.90
1379;DHT22;683;48.738;9.226;2023-05-20T03:39:40;10.50;99.90
1379;DHT22;683;48.738;9.226;2023-05-20T03:42:07;10.40;99.90
1379;DHT22;683;48.738;9.226;2023-05-20T03:44:35;10.40;99.90
1379;DHT22;683;48.738;9.226;2023-05-20T03:47:02;10.40;99.90
1379;DHT22;683;48.738;9.226;2023-05-20T03:49:30;10.40;99.90
1379;DHT22;683;48.738;9.226;2023-05-20T03:51:58;10.40;99.90
1379;DHT22;683;48.738;9.226;2023-05-20T03:54:25;10.50;99.90
1379;DHT22;683;48.738;9.226;2023-05-20T03:56:54;10.50;99.90
1379;DHT22;683;48.738;9.226;2023-05-20T03:59:22;10.60;99.90
1379;DHT22;683;48.738;9.226;2023-05-20T04:01:50;10.60;99.90
1379;DHT22;683;48.738;9.226;2023-05-20T04:04:17;10.70;99.90
1379;DHT22;683;48.738;9.226;2023-05-20T04:06:45;10.70;99.90
1379;DHT22;683;48.738;9.226;2023-05-20T04:09:12;10.80;99.90
1379;DHT22;683;48.738;9.226;2023-05-20T04:11:39;10.90;99.90
1379;DHT22;683;48.738;9.226;2023-05-20T04:14:08;10.90;99.90
1379;DHT22;683;48.738;9.226;2023-05-20T04:16:36;11.00;99.90
1379;DHT22;683;48.738;9.226;2023-05-20T04:19:04;11.00;99.90
1379;DHT22;683;48.738;9.226;2023-05-20T04:21:32;11.10;99.90
1379;DHT22;683;48.738;9.226;2023-05-20T04:23:59;11.20;99.90
1379;DHT22;683;48.738;9.226;2023-05-20T04:26:27;11.20;99.90
1379;DHT22;683;48.738;9.226;2023-05-20T04:28:55;11.20;99.90
1379;DHT22;683;48.738;9.226;2023-05-20T04:31:25;11.30;99.90
1379;DHT22;683;48.738;9.226;2023-05-20T04:33:53;11.30;99.90
1379;DHT22;683;48.738;9.226;2023-05-20T04:36:22;11.40;99.90
1379;DHT22;683;48.738;9.226;2023-05-20T04:38:54;11.40;99.90
1379;DHT22;683;48.738;9.226;2023-05-20T04:41:22;11.30;99.90
1379;DHT22;683;48.738;9.226;2023-05-20T04:43:50;11.40;99.90
1379;DHT22;683;48.738;9.226;2023-05-20T04:46:17;11.40;99.90
1379;DHT22;683;48.738;9.226;2023-05-20T04:48:46;11.40;99.90
1379;DHT22;683;48.738;9.226;2023-05-20T04:51:14;11.40;99.90
1379;DHT22;683;48.738;9.226;2023-05-20T04:53:43;11.40;99.90
1379;DHT22;683;48.738;9.226;2023-05-20T04:56:11;11.50;99.90
1379;DHT22;683;48.738;9.226;2023-05-20T04:58:40;11.50;99.90
1379;DHT22;683;48.738;9.226;2023-05-20T05:01:08;11.60;99.90
1379;DHT22;683;48.738;9.226;2023-05-20T05:03:35;11.70;99.90
1379;DHT22;683;48.738;9.226;2023-05-20T05:06:04;11.80;99.90
1379;DHT22;683;48.738;9.226;2023-05-20T05:08:31;11.90;99.90
1379;DHT22;683;48.738;9.226;2023-05-20T05:10:59;12.00;99.90
1379;DHT22;683;48.738;9.226;2023-05-20T05:13:26;12.00;99.90
1379;DHT22;683;48.738;9.226;2023-05-20T05:15:58;12.10;99.90
1379;DHT22;683;48.738;9.226;2023-05-20T05:18:26;12.20;99.90
1379;DHT22;683;48.738;9.226;2023-05-20T05:21:01;12.20;99.90
1379;DHT22;683;48.738;9.226;2023-05-20T05:23:30;12.30;99.90
1379;DHT22;683;48.738;9.226;2023-05-20T05:25:58;12.40;99.90
1379;DHT22;683;48.738;9.226;2023-05-20T05:28:26;12.40;99.90
1379;DHT22;683;48.738;9.226;2023-05-20T05:30:54;12.50;99.90
1379;DHT22;683;48.738;9.226;2023-05-20T05:33:22;12.60;99.90
1379;DHT22;683;48.738;9.226;2023-05-20T05:35:50;12.70;99.90
1379;DHT22;683;48.738;9.226;2023-05-20T05:38:17;12.80;99.90
1379;DHT22;683;48.738;9.226;2023-05-20T05:40:46;12.90;99.90
1379;DHT22;683;48.738;9.226;2023-05-20T05:43:15;13.00;99.90
1379;DHT22;683;48.738;9.226;2023-05-20T05:45:44;13.00;99.90
1379;DHT22;683;48.738;9.226;2023-05-20T05:48:12;13.10;99.90
1379;DHT22;683;48.738;9.226;2023-05-20T05:50:43;13.20;99.90
1379;DHT22;683;48.738;9.226;2023-05-20T05:53:12;13.20;99.90
1379;DHT22;683;48.738;9.226;2023-05-20T05:55:46;13.40;99.90
1379;DHT22;683;48.738;9.226;2023-05-20T05:58:13;13.50;99.90
1379;DHT22;683;48.738;9.226;2023-05-20T06:00:41;13.50;99.90
1379;DHT22;683;48.738;9.226;2023-05-20T06:03:09;13.60;99.90
1379;DHT22;683;48.738;9.226;2023-05-20T06:05:37;13.60;99.90
1379;DHT22;683;48.738;9.226;2023-05-20T06:08:05;13.70;99.90
1379;DHT22;683;48.738;9.226;2023-05-20T06:10:34;13.90;99.90
1379;DHT22;683;48.738;9.226;2023-05-20T06:13:02;14.00;99.90
1379;DHT22;683;48.738;9.226;2023-05-20T06:15:31;14.20;99.90
1379;DHT22;683;48.738;9.226;2023-05-20T06:17:58;14.20;99.90
1379;DHT22;683;48.738;9.226;2023-05-20T06:20:26;14.40;99.90
1379;DHT22;683;48.738;9.226;2023-05-20T06:22:53;14.50;99.90
1379;DHT22;683;48.738;9.226;2023-05-20T06:25:24;14.60;99.90
1379;DHT22;683;48.738;9.226;2023-05-20T06:27:51;14.70;99.90
1379;DHT22;683;48.738;9.226;2023-05-20T06:30:20;14.80;99.90
1379;DHT22;683;48.738;9.226;2023-05-20T06:32:48;14.90;99.90
1379;DHT22;683;48.738;9.226;2023-05-20T06:35:16;14.90;99.90
1379;DHT22;683;48.738;9.226;2023-05-20T06:37:43;15.00;99.90
1379;DHT22;683;48.738;9.226;2023-05-20T06:40:11;15.10;99.90
1379;DHT22;683;48.738;9.226;2023-05-20T06:42:40;15.20;99.90
1379;DHT22;683;48.738;9.226;2023-05-20T06:45:08;15.20;99.90
1379;DHT22;683;48.738;9.226;2023-05-20T06:47:49;15.30;99.90
1379;DHT22;683;48.738;9.226;2023-05-20T06:50:19;15.40;99.90
1379;DHT22;683;48.738;9.226;2023-05-20T06:52:46;15.50;99.90
1379;DHT22;683;48.738;9.226;2023-05-20T06:55:15;15.50;99.90
1379;DHT22;683;48.738;9.226;2023-05-20T06:57:42;15.60;99.90
1379;DHT22;683;48.738;9.226;2023-05-20T07:00:12;15.70;99.90
1379;DHT22;683;48.738;9.226;2023-05-20T07:02:41;15.70;99.90
1379;DHT22;683;48.738;9.226;2023-05-20T07:05:11;15.80;99.90
1379;DHT22;683;48.738;9.226;2023-05-20T07:07:38;15.80;99.90
1379;DHT22;683;48.738;9.226;2023-05-20T07:10:07;15.90;99.90
1379;DHT22;683;48.738;9.226;2023-05-20T07:12:35;15.90;99.90
1379;DHT22;683;48.738;9.226;2023-05-20T07:15:02;15.90;99.60
1379;DHT22;683;48.738;9.226;2023-05-20T07:17:31;16.00;99.50
1379;DHT22;683;48.738;9.226;2023-05-20T07:19:58;16.10;99.10
1379;DHT22;683;48.738;9.226;2023-05-20T07:22:27;16.10;98.50
1379;DHT22;683;48.738;9.226;2023-05-20T07:25:08;16.10;98.40
1379;DHT22;683;48.738;9.226;2023-05-20T07:27:37;16.20;98.40
1379;DHT22;683;48.738;9.226;2023-05-20T07:30:05;16.20;98.20
1379;DHT22;683;48.738;9.226;2023-05-20T07:32:34;16.20;97.70
1379;DHT22;683;48.738;9.226;2023-05-20T07:35:02;16.10;97.70
1379;DHT22;683;48.738;9.226;2023-05-20T07:37:31;16.00;97.80
1379;DHT22;683;48.738;9.226;2023-05-20T07:39:59;16.00;98.10
1379;DHT22;683;48.738;9.226;2023-05-20T07:42:26;16.00;98.10
1379;DHT22;683;48.738;9.226;2023-05-20T07:44:58;16.00;97.80
1379;DHT22;683;48.738;9.226;2023-05-20T07:47:25;16.10;97.60
1379;DHT22;683;48.738;9.226;2023-05-20T07:49:53;16.20;97.60
1379;DHT22;683;48.738;9.226;2023-05-20T07:52:20;16.20;97.10
1379;DHT22;683;48.738;9.226;2023-05-20T07:54:50;16.30;97.30
1379;DHT22;683;48.738;9.226;2023-05-20T07:57:17;16.30;96.70
1379;DHT22;683;48.738;9.226;2023-05-20T07:59:45;16.40;96.50
1379;DHT22;683;48.738;9.226;2023-05-20T08:02:12;16.50;96.70
1379;DHT22;683;48.738;9.226;2023-05-20T08:04:41;16.60;96.70
1379;DHT22;683;48.738;9.226;2023-05-20T08:07:08;16.70;96.20
1379;DHT22;683;48.738;9.226;2023-05-20T08:09:53;16.80;96.10
1379;DHT22;683;48.738;9.226;2023-05-20T08:12:21;17.00;95.90
1379;DHT22;683;48.738;9.226;2023-05-20T08:14:49;17.10;95.50
1379;DHT22;683;48.738;9.226;2023-05-20T08:17:16;17.30;94.90
1379;DHT22;683;48.738;9.226;2023-05-20T08:19:43;17.50;94.90
1379;DHT22;683;48.738;9.226;2023-05-20T08:22:13;17.60;94.10
1379;DHT22;683;48.738;9.226;2023-05-20T08:24:40;17.90;93.70
1379;DHT22;683;48.738;9.226;2023-05-20T08:27:10;17.90;93.10
1379;DHT22;683;48.738;9.226;2023-05-20T08:29:38;18.00;92.80
1379;DHT22;683;48.738;9.226;2023-05-20T08:32:06;18.00;92.70
1379;DHT22;683;48.738;9.226;2023-05-20T08:34:34;18.00;92.50
1379;DHT22;683;48.738;9.226;2023-05-20T08:37:01;18.00;92.50
1379;DHT22;683;48.738;9.226;2023-05-20T08:39:29;18.10;92.30
1379;DHT22;683;48.738;9.226;2023-05-20T08:41:57;18.20;91.40
1379;DHT22;683;48.738;9.226;2023-05-20T08:44:26;18.30;90.60
1379;DHT22;683;48.738;9.226;2023-05-20T08:46:55;18.50;90.40
1379;DHT22;683;48.738;9.226;2023-05-20T08:49:23;18.60;89.20
1379;DHT22;683;48.738;9.226;2023-05-20T08:51:50;18.70;88.90
1379;DHT22;683;48.738;9.226;2023-05-20T08:54:18;19.00;89.50
1379;DHT22;683;48.738;9.226;2023-05-20T08:56:49;19.10;87.30
1379;DHT22;683;48.738;9.226;2023-05-20T08:59:19;19.00;86.50
1379;DHT22;683;48.738;9.226;2023-05-20T09:01:48;19.00;87.90
1379;DHT22;683;48.738;9.226;2023-05-20T09:04:15;18.90;88.20
1379;DHT22;683;48.738;9.226;2023-05-20T09:06:43;18.90;88.20
1379;DHT22;683;48.738;9.226;2023-05-20T09:09:11;18.90;88.50
1379;DHT22;683;48.738;9.226;2023-05-20T09:11:39;18.80;88.90
1379;DHT22;683;48.738;9.226;2023-05-20T09:14:07;18.90;89.50
1379;DHT22;683;48.738;9.226;2023-05-20T09:16:35;18.90;88.60
1379;DHT22;683;48.738;9.226;2023-05-20T09:19:06;19.00;88.20
1379;DHT22;683;48.738;9.226;2023-05-20T09:21:34;19.10;88.00
1379;DHT22;683;48.738;9.226;2023-05-20T09:24:04;19.40;88.20
1379;DHT22;683;48.738;9.226;2023-05-20T09:26:31;19.50;88.30
1379;DHT22;683;48.738;9.226;2023-05-20T09:28:59;19.60;87.80
1379;DHT22;683;48.738;9.226;2023-05-20T09:31:26;19.80;87.80
1379;DHT22;683;48.738;9.226;2023-05-20T09:33:54;20.00;86.20
1379;DHT22;683;48.738;9.226;2023-05-20T09:36:24;20.00;85.20
1379;DHT22;683;48.738;9.226;2023-05-20T09:38:55;20.00;85.20
1379;DHT22;683;48.738;9.226;2023-05-20T09:41:29;20.00;84.20
1379;DHT22;683;48.738;9.226;2023-05-20T09:44:00;20.00;84.60
1379;DHT22;683;48.738;9.226;2023-05-20T09:46:29;20.20;85.00
1379;DHT22;683;48.738;9.226;2023-05-20T09:48:58;20.50;84.50
1379;DHT22;683;48.738;9.226;2023-05-20T09:51:28;20.80;83.20
1379;DHT22;683;48.738;9.226;2023-05-20T09:53:57;21.00;82.30
1379;DHT22;683;48.738;9.226;2023-05-20T09:56:24;21.10;80.90
1379;DHT22;683;48.738;9.226;2023-05-20T09:58:53;21.00;80.60
1379;DHT22;683;48.738;9.226;2023-05-20T10:01:23;20.90;81.30
1379;DHT22;683;48.738;9.226;2023-05-20T10:03:51;21.10;81.30
1379;DHT22;683;48.738;9.226;2023-05-20T10:06:49;21.30;81.80
1379;DHT22;683;48.738;9.226;2023-05-20T10:09:28;21.60;82.10
1379;DHT22;683;48.738;9.226;2023-05-20T10:12:06;21.70;81.40
1379;DHT22;683;48.738;9.226;2023-05-20T10:14:47;21.70;79.80
1379;DHT22;683;48.738;9.226;2023-05-20T10:17:25;21.50;79.90
1379;DHT22;683;48.738;9.226;2023-05-20T10:19:59;21.30;79.50
1379;DHT22;683;48.738;9.226;2023-05-20T10:22:29;21.10;80.70
1379;DHT22;683;48.738;9.226;2023-05-20T10:24:59;21.00;80.60
1379;DHT22;683;48.738;9.226;2023-05-20T10:27:27;21.00;81.50
1379;DHT22;683;48.738;9.226;2023-05-20T10:29:55;20.90;81.30
1379;DHT22;683;48.738;9.226;2023-05-20T10:32:23;20.90;80.30
1379;DHT22;683;48.738;9.226;2023-05-20T10:34:51;20.90;81.10
1379;DHT22;683;48.738;9.226;2023-05-20T10:37:23;21.00;81.20
1379;DHT22;683;48.738;9.226;2023-05-20T10:40:02;21.10;81.20
1379;DHT22;683;48.738;9.226;2023-05-20T10:42:30;21.10;79.40
1379;DHT22;683;48.738;9.226;2023-05-20T10:44:57;21.00;79.00
1379;DHT22;683;48.738;9.226;2023-05-20T10:47:25;21.10;80.20
1379;DHT22;683;48.738;9.226;2023-05-20T10:49:52;21.10;79.20
1379;DHT22;683;48.738;9.226;2023-05-20T10:52:19;21.20;79.40
1379;DHT22;683;48.738;9.226;2023-05-20T10:54:55;21.20;80.50
1379;DHT22;683;48.738;9.226;2023-05-20T10:57:24;21.30;80.20
1379;DHT22;683;48.738;9.226;2023-05-20T10:59:52;21.30;80.00
1379;DHT22;683;48.738;9.226;2023-05-20T11:02:20;21.40;79.80
1379;DHT22;683;48.738;9.226;2023-05-20T11:04:51;21.30;77.90
1379;DHT22;683;48.738;9.226;2023-05-20T11:07:26;21.40;78.20
1379;DHT22;683;48.738;9.226;2023-05-20T11:09:55;21.40;76.10
1379;DHT22;683;48.738;9.226;2023-05-20T11:12:23;21.50;77.30
1379;DHT22;683;48.738;9.226;2023-05-20T11:14:51;21.60;77.80
1379;DHT22;683;48.738;9.226;2023-05-20T11:17:19;21.80;77.70
1379;DHT22;683;48.738;9.226;2023-05-20T11:19:47;22.00;78.00
1379;DHT22;683;48.738;9.226;2023-05-20T11:22:14;22.20;74.20
1379;DHT22;683;48.738;9.226;2023-05-20T11:24:41;22.50;75.20
1379;DHT22;683;48.738;9.226;2023-05-20T11:27:10;22.70;72.60
1379;DHT22;683;48.738;9.226;2023-05-20T11:29:39;22.80;72.00
1379;DHT22;683;48.738;9.226;2023-05-20T11:32:07;22.80;71.90
1379;DHT22;683;48.738;9.226;2023-05-20T11:34:35;23.10;72.40
1379;DHT22;683;48.738;9.226;2023-05-20T11:37:06;23.20;72.00
1379;DHT22;683;48.738;9.226;2023-05-20T11:39:33;23.60;70.30
1379;DHT22;683;48.738;9.226;2023-05-20T11:42:02;23.60;68.70
1379;DHT22;683;48.738;9.226;2023-05-20T11:44:32;23.70;68.80
1379;DHT22;683;48.738;9.226;2023-05-20T11:47:00;23.70;67.80
1379;DHT22;683;48.738;9.226;2023-05-20T11:49:28;23.70;67.80
1379;DHT22;683;48.738;9.226;2023-05-20T11:51:56;23.80;68.40
1379;DHT22;683;48.738;9.226;2023-05-20T11:54:24;23.90;68.70
1379;DHT22;683;48.738;9.226;2023-05-20T11:56:53;24.00;68.30
1379;DHT22;683;48.738;9.226;2023-05-20T11:59:23;24.00;67.00
1379;DHT22;683;48.738;9.226;2023-05-20T12:01:52;24.00;66.40
1379;DHT22;683;48.738;9.226;2023-05-20T12:04:19;24.00;67.10
1379;DHT22;683;48.738;9.226;2023-05-20T12:06:47;24.00;66.20
1379;DHT22;683;48.738;9.226;2023-05-20T12:09:14;24.10;64.80
1379;DHT22;683;48.738;9.226;2023-05-20T12:11:41;24.30;65.70
1379;DHT22;683;48.738;9.226;2023-05-20T12:14:11;24.50;66.40
1379;DHT22;683;48.738;9.226;2023-05-20T12:16:38;24.70;66.10
1379;DHT22;683;48.738;9.226;2023-05-20T12:19:07;25.00;66.50
1379;DHT22;683;48.738;9.226;2023-05-20T12:21:34;25.30;62.20
1379;DHT22;683;48.738;9.226;2023-05-20T12:24:02;25.50;63.30
1379;DHT22;683;48.738;9.226;2023-05-20T12:26:31;25.70;63.00
1379;DHT22;683;48.738;9.226;2023-05-20T12:29:00;25.90;61.80
1379;DHT22;683;48.738;9.226;2023-05-20T12:31:27;26.20;59.80
1379;DHT22;683;48.738;9.226;2023-05-20T12:33:55;26.30;60.00
1379;DHT22;683;48.738;9.226;2023-05-20T12:36:23;26.30;59.50
1379;DHT22;683;48.738;9.226;2023-05-20T12:38:51;26.20;59.30
1379;DHT22;683;48.738;9.226;2023-05-20T12:41:18;26.20;59.60
1379;DHT22;683;48.738;9.226;2023-05-20T12:43:46;26.40;59.90
1379;DHT22;683;48.738;9.226;2023-05-20T12:46:13;26.50;58.90
1379;DHT22;683;48.738;9.226;2023-05-20T12:48:41;26.50;58.30
1379;DHT22;683;48.738;9.226;2023-05-20T12:51:08;26.70;58.40
1379;DHT22;683;48.738;9.226;2023-05-20T12:53:37;27.00;56.20
1379;DHT22;683;48.738;9.226;2023-05-20T12:56:04;26.90;56.00
1379;DHT22;683;48.738;9.226;2023-05-20T12:58:32;26.70;56.70
1379;DHT22;683;48.738;9.226;2023-05-20T13:00:59;26.70;57.50
1379;DHT22;683;48.738;9.226;2023-05-20T13:03:27;27.20;57.00
1379;DHT22;683;48.738;9.226;2023-05-20T13:05:54;27.60;55.80
1379;DHT22;683;48.738;9.226;2023-05-20T13:08:21;28.00;55.60
1379;DHT22;683;48.738;9.226;2023-05-20T13:10:50;28.50;54.40
1379;DHT22;683;48.738;9.226;2023-05-20T13:13:18;29.20;53.20
1379;DHT22;683;48.738;9.226;2023-05-20T13:15:46;30.20;51.30
1379;DHT22;683;48.738;9.226;2023-05-20T13:18:15;31.10;49.60
1379;DHT22;683;48.738;9.226;2023-05-20T13:20:42;31.60;48.50
1379;DHT22;683;48.738;9.226;2023-05-20T13:23:10;31.50;48.50
1379;DHT22;683;48.738;9.226;2023-05-20T13:25:38;31.60;46.30
1379;DHT22;683;48.738;9.226;2023-05-20T13:28:07;31.40;46.80
1379;DHT22;683;48.738;9.226;2023-05-20T13:30:35;31.00;47.80
1379;DHT22;683;48.738;9.226;2023-05-20T13:33:02;30.30;47.70
1379;DHT22;683;48.738;9.226;2023-05-20T13:35:30;29.80;49.00
1379;DHT22;683;48.738;9.226;2023-05-20T13:37:57;30.10;49.60
1379;DHT22;683;48.738;9.226;2023-05-20T13:40:24;30.50;49.50
1379;DHT22;683;48.738;9.226;2023-05-20T13:42:52;31.10;47.90
1379;DHT22;683;48.738;9.226;2023-05-20T13:45:21;31.50;46.40
1379;DHT22;683;48.738;9.226;2023-05-20T13:47:48;31.70;46.80
1379;DHT22;683;48.738;9.226;2023-05-20T13:50:16;31.70;45.80
1379;DHT22;683;48.738;9.226;2023-05-20T13:52:43;31.30;45.90
1379;DHT22;683;48.738;9.226;2023-05-20T13:55:10;30.70;46.70
1379;DHT22;683;48.738;9.226;2023-05-20T13:57:38;30.10;47.30
1379;DHT22;683;48.738;9.226;2023-05-20T14:00:06;29.60;47.90
1379;DHT22;683;48.738;9.226;2023-05-20T14:02:36;29.50;48.20
1379;DHT22;683;48.738;9.226;2023-05-20T14:05:05;30.70;47.80
1379;DHT22;683;48.738;9.226;2023-05-20T14:07:33;32.20;45.10
1379;DHT22;683;48.738;9.226;2023-05-20T14:10:00;33.50;43.50
1379;DHT22;683;48.738;9.226;2023-05-20T14:12:28;33.70;41.70
1379;DHT22;683;48.738;9.226;2023-05-20T14:14:55;33.20;42.60
1379;DHT22;683;48.738;9.226;2023-05-20T14:17:23;33.10;42.90
1379;DHT22;683;48.738;9.226;2023-05-20T14:19:52;33.10;43.00
1379;DHT22;683;48.738;9.226;2023-05-20T14:22:19;33.30;42.30
1379;DHT22;683;48.738;9.226;2023-05-20T14:24:46;33.00;42.00
1379;DHT22;683;48.738;9.226;2023-05-20T14:27:14;32.90;42.10
1379;DHT22;683;48.738;9.226;2023-05-20T14:29:41;33.30;41.70
1379;DHT22;683;48.738;9.226;2023-05-20T14:32:08;34.20;40.40
1379;DHT22;683;48.738;9.226;2023-05-20T14:34:37;34.70;39.10
1379;DHT22;683;48.738;9.226;2023-05-20T14:37:06;34.50;38.50
1379;DHT22;683;48.738;9.226;2023-05-20T14:39:34;34.10;39.70
1379;DHT22;683;48.738;9.226;2023-05-20T14:42:02;33.60;39.90
1379;DHT22;683;48.738;9.226;2023-05-20T14:44:30;32.90;40.40
1379;DHT22;683;48.738;9.226;2023-05-20T14:46:57;32.00;41.60
1379;DHT22;683;48.738;9.226;2023-05-20T14:49:24;31.10;42.90
1379;DHT22;683;48.738;9.226;2023-05-20T14:51:52;30.30;44.60
1379;DHT22;683;48.738;9.226;2023-05-20T14:54:20;29.60;45.60
1379;DHT22;683;48.738;9.226;2023-05-20T14:56:49;29.10;46.80
1379;DHT22;683;48.738;9.226;2023-05-20T14:59:17;28.70;47.20
1379;DHT22;683;48.738;9.226;2023-05-20T15:01:45;28.50;47.70
1379;DHT22;683;48.738;9.226;2023-05-20T15:04:12;28.20;48.60
1379;DHT22;683;48.738;9.226;2023-05-20T15:06:39;28.00;48.10
1379;DHT22;683;48.738;9.226;2023-05-20T15:09:07;27.90;48.70
1379;DHT22;683;48.738;9.226;2023-05-20T15:11:36;27.90;49.00
1379;DHT22;683;48.738;9.226;2023-05-20T15:14:03;27.90;49.30
1379;DHT22;683;48.738;9.226;2023-05-20T15:16:31;27.90;48.80
1379;DHT22;683;48.738;9.226;2023-05-20T15:18:58;28.00;48.90
1379;DHT22;683;48.738;9.226;2023-05-20T15:21:26;28.10;49.10
1379;DHT22;683;48.738;9.226;2023-05-20T15:23:53;28.50;48.50
1379;DHT22;683;48.738;9.226;2023-05-20T15:26:21;28.90;48.40
1379;DHT22;683;48.738;9.226;2023-05-20T15:28:49;29.40;47.00
1379;DHT22;683;48.738;9.226;2023-05-20T15:31:17;30.00;45.80
1379;DHT22;683;48.738;9.226;2023-05-20T15:33:44;30.60;45.30
1379;DHT22;683;48.738;9.226;2023-05-20T15:36:12;31.00;44.50
1379;DHT22;683;48.738;9.226;2023-05-20T15:38:39;31.00;44.60
1379;DHT22;683;48.738;9.226;2023-05-20T15:41:07;30.70;44.50
1379;DHT22;683;48.738;9.226;2023-05-20T15:43:37;30.30;44.80
1379;DHT22;683;48.738;9.226;2023-05-20T15:46:06;29.90;45.30
1379;DHT22;683;48.738;9.226;2023-05-20T15:48:34;29.70;46.10
1379;DHT22;683;48.738;9.226;2023-05-20T15:51:02;29.80;46.20
1379;DHT22;683;48.738;9.226;2023-05-20T15:53:30;30.50;45.60
1379;DHT22;683;48.738;9.226;2023-05-20T15:55:58;31.50;45.00
1379;DHT22;683;48.738;9.226;2023-05-20T15:58:25;32.10;43.20
1379;DHT22;683;48.738;9.226;2023-05-20T16:00:53;32.40;42.30
1379;DHT22;683;48.738;9.226;2023-05-20T16:03:21;32.90;41.70
1379;DHT22;683;48.738;9.226;2023-05-20T16:05:49;33.60;41.70
1379;DHT22;683;48.738;9.226;2023-05-20T16:08:16;33.80;40.90
1379;DHT22;683;48.738;9.226;2023-05-20T16:10:45;34.00;40.70
1379;DHT22;683;48.738;9.226;2023-05-20T16:13:13;34.10;40.30
1379;DHT22;683;48.738;9.226;2023-05-20T16:15:40;34.10;39.70
1379;DHT22;683;48.738;9.226;2023-05-20T16:18:07;33.80;39.30
1379;DHT22;683;48.738;9.226;2023-05-20T16:20:37;33.30;40.30
1379;DHT22;683;48.738;9.226;2023-05-20T16:23:05;32.90;40.80
1379;DHT22;683;48.738;9.226;2023-05-20T16:25:34;32.80;40.80